Time;durP1;ratioP1;P1;durP2;ratioP2;P2;SDS_P1;SDS_P2;PMS_P1;PMS_P2;Temp;Humidity;BMP_temperature;BMP_pressure;BME280_temperature;BME280_humidity;BME280_pressure;Samples;Min_cycle;Max_cycle;Signal;HPM_P1;HPM_P2
2023/01/10 00:01:50;;;;;;;6.30;2.75;;;;;;;-144.31;100.00;58022.63;5062034;28;20044;-57
2023/01/10 00:04:16;;;;;;;5.43;2.92;;;;;;;-144.31;100.00;58022.63;5054970;28;20507;-57
2023/01/10 00:06:41;;;;;;;5.82;2.70;;;;;;;-144.31;100.00;58022.63;5057315;28;20036;-57
2023/01/10 00:09:06;;;;;;;6.05;2.30;;;;;;;-144.31;100.00;58022.63;5054123;28;20047;-58
2023/01/10 00:14:16;;;;;;;2.85;2.10;;;;;;;-144.31;100.00;58022.63;5051541;28;20037;-57
2023/01/10 00:16:42;;;;;;;2.63;1.80;;;;;;;-144.31;100.00;58022.63;5054753;28;20063;-56
2023/01/10 00:19:09;;;;;;;5.50;2.28;;;;;;;-144.31;100.00;58022.63;5057272;28;20398;-55
2023/01/10 00:21:35;;;;;;;4.13;2.25;;;;;;;-144.31;100.00;58022.63;5060703;28;20051;-58
2023/01/10 00:24:12;;;;;;;3.30;2.00;;;;;;;-144.31;100.00;58022.63;5062059;28;20044;-57
2023/01/10 00:26:39;;;;;;;3.60;2.30;;;;;;;-144.31;100.00;58022.63;5052592;28;20468;-58
2023/01/10 00:29:06;;;;;;;3.13;2.00;;;;;;;-144.31;100.00;58022.63;5064278;28;20041;-58
2023/01/10 00:31:32;;;;;;;5.28;2.13;;;;;;;-144.31;100.00;58022.63;5052172;28;20520;-57
2023/01/10 00:33:57;;;;;;;3.83;2.30;;;;;;;-144.31;100.00;58022.63;5057861;28;20041;-58
2023/01/10 00:36:23;;;;;;;3.95;2.17;;;;;;;-144.31;100.00;58022.63;5055760;28;20040;-55
2023/01/10 00:38:48;;;;;;;4.80;2.40;;;;;;;-144.31;100.00;58022.63;5055121;28;20121;-58
2023/01/10 00:44:02;;;;;;;3.42;2.30;;;;;;;-144.31;100.00;58022.63;5054284;28;20045;-58
2023/01/10 00:46:27;;;;;;;5.30;2.60;;;;;;;-144.31;100.00;58022.63;5057147;28;20117;-55
2023/01/10 00:48:53;;;;;;;5.25;2.50;;;;;;;-144.31;100.00;58022.63;5059654;28;20111;-59
2023/01/10 00:51:19;;;;;;;4.05;2.50;;;;;;;-144.31;100.00;58022.63;5060420;28;20067;-57
2023/01/10 00:53:45;;;;;;;4.15;2.47;;;;;;;-144.31;100.00;58022.63;5087175;28;20072;-58
2023/01/10 00:56:10;;;;;;;5.47;2.60;;;;;;;-144.31;100.00;58022.63;5061614;28;20055;-59
2023/01/10 00:58:35;;;;;;;5.35;2.67;;;;;;;-144.31;100.00;58022.63;5055314;28;20036;-58
2023/01/10 01:01:01;;;;;;;4.85;2.88;;;;;;;-144.31;100.00;58022.63;5051192;28;20055;-56
2023/01/10 01:03:26;;;;;;;5.18;3.08;;;;;;;-144.31;100.00;58022.63;5049807;28;20068;-58
2023/01/10 01:05:52;;;;;;;7.50;3.33;;;;;;;-144.31;100.00;58022.63;5053804;28;20106;-58
2023/01/10 01:08:18;;;;;;;5.97;3.15;;;;;;;-144.31;100.00;58022.63;5049159;28;20029;-58
2023/01/10 01:10:44;;;;;;;4.35;3.17;;;;;;;-144.31;100.00;58022.63;5053714;28;20068;-57
2023/01/10 01:13:16;;;;;;;5.32;3.58;;;;;;;-144.31;100.00;58022.63;5051472;28;20124;-56
2023/01/10 01:15:41;;;;;;;8.10;3.80;;;;;;;-144.31;100.00;58022.63;5043319;28;20040;-56
2023/01/10 01:18:07;;;;;;;4.88;3.63;;;;;;;-144.31;100.00;58022.63;5051784;28;20043;-56
2023/01/10 01:20:33;;;;;;;5.97;3.70;;;;;;;-144.31;100.00;58022.63;5058211;28;20083;-57
2023/01/10 01:22:59;;;;;;;8.50;4.28;;;;;;;-144.31;100.00;58022.63;5052986;28;21035;-57
2023/01/10 01:25:26;;;;;;;7.10;4.25;;;;;;;-144.31;100.00;58022.63;5047563;28;20118;-57
2023/01/10 01:27:51;;;;;;;7.88;4.30;;;;;;;-144.31;100.00;58022.63;5052225;28;20144;-54
2023/01/10 01:30:16;;;;;;;5.78;3.78;;;;;;;-144.31;100.00;58022.63;5051952;28;20185;-56
2023/01/10 01:32:42;;;;;;;7.97;4.82;;;;;;;-144.31;100.00;58022.63;5053559;28;20036;-58
2023/01/10 01:35:12;;;;;;;5.97;4.10;;;;;;;-144.31;100.00;58022.63;5049911;28;20417;-57
2023/01/10 01:37:38;;;;;;;8.23;4.30;;;;;;;-144.31;100.00;58022.63;5055676;28;20040;-56
2023/01/10 01:40:04;;;;;;;6.93;4.15;;;;;;;-144.31;100.00;58022.63;5052587;28;20048;-57
2023/01/10 01:42:32;;;;;;;5.60;4.10;;;;;;;-144.31;100.00;58022.63;5049571;28;20779;-56
2023/01/10 01:45:11;;;;;;;7.95;4.35;;;;;;;-144.31;100.00;58022.63;5055290;28;20127;-58
2023/01/10 01:47:45;;;;;;;7.78;4.00;;;;;;;-144.31;100.00;58022.63;5051539;28;20124;-58
2023/01/10 01:50:23;;;;;;;7.57;4.30;;;;;;;-144.31;100.00;58022.63;5053292;28;20063;-57
2023/01/10 01:52:52;;;;;;;6.32;4.28;;;;;;;-144.31;100.00;58022.63;5055133;28;20115;-59
2023/01/10 01:55:18;;;;;;;10.00;4.68;;;;;;;-144.31;100.00;58022.63;5054381;28;20037;-57
2023/01/10 01:57:45;;;;;;;8.52;4.55;;;;;;;-144.31;100.00;58022.63;5058286;28;20102;-56
2023/01/10 02:00:11;;;;;;;;;;;;;;;-144.31;100.00;58022.63;5055464;28;20045;-56
2023/01/10 02:02:50;;;;;;;7.00;4.20;;;;;;;-144.31;100.00;58022.63;5054682;28;19922;-58
2023/01/10 02:05:17;;;;;;;5.30;4.22;;;;;;;-144.31;100.00;58022.63;5053270;28;20064;-58
2023/01/10 02:07:46;;;;;;;7.43;4.18;;;;;;;-144.31;100.00;58022.63;5059144;28;20043;-55
2023/01/10 02:10:20;;;;;;;10.05;5.00;;;;;;;-144.31;100.00;58022.63;5051170;28;20545;-58
2023/01/10 02:12:50;;;;;;;8.13;4.53;;;;;;;-144.31;100.00;58022.63;5052815;28;20032;-58
2023/01/10 02:15:16;;;;;;;7.45;4.30;;;;;;;-144.31;100.00;58022.63;5050985;28;20048;-58
2023/01/10 02:17:42;;;;;;;8.65;4.20;;;;;;;-144.31;100.00;58022.63;5048591;28;20036;-57
2023/01/10 02:20:11;;;;;;;6.50;4.03;;;;;;;-144.31;100.00;58022.63;5050208;28;20113;-58
2023/01/10 02:22:46;;;;;;;8.13;3.97;;;;;;;-144.31;100.00;58022.63;5050805;28;20584;-58
2023/01/10 02:25:20;;;;;;;9.10;4.30;;;;;;;-144.31;100.00;58022.63;5049740;28;20052;-58
2023/01/10 02:27:55;;;;;;;5.35;3.67;;;;;;;-144.31;100.00;58022.63;5058276;28;20480;-58
2023/01/10 02:30:39;;;;;;;6.25;3.58;;;;;;;-144.31;100.00;58022.63;5054617;28;20069;-59
2023/01/10 02:33:27;;;;;;;7.97;3.00;;;;;;;-144.31;100.00;58022.63;5053804;28;20131;-58
2023/01/10 02:36:12;;;;;;;4.47;2.67;;;;;;;-144.31;100.00;58022.63;5057526;28;20477;-58
2023/01/10 02:39:03;;;;;;;5.60;2.70;;;;;;;-144.31;100.00;58022.63;5053142;28;20041;-58
2023/01/10 02:41:49;;;;;;;5.05;2.33;;;;;;;-144.31;100.00;58022.63;5045454;28;20048;-58
2023/01/10 02:44:28;;;;;;;11.00;2.58;;;;;;;-144.31;100.00;58022.63;5052625;28;20033;-58
2023/01/10 02:46:55;;;;;;;5.10;2.55;;;;;;;-144.31;100.00;58022.63;5051044;28;20066;-57
2023/01/10 02:49:20;;;;;;;3.20;2.33;;;;;;;-144.31;100.00;58022.63;5053225;28;20040;-58
2023/01/10 02:51:45;;;;;;;5.60;2.75;;;;;;;-144.31;100.00;58022.63;5053629;28;20041;-55
2023/01/10 02:54:29;;;;;;;3.70;2.22;;;;;;;-144.31;100.00;58022.63;5052293;28;20033;-55
2023/01/10 02:57:32;;;;;;;4.00;2.65;;;;;;;-144.31;100.00;58022.63;5055260;28;20133;-57
2023/01/10 03:00:35;;;;;;;5.57;2.97;;;;;;;-144.31;100.00;58022.63;5052957;28;20486;-54
2023/01/10 03:03:06;;;;;;;5.75;3.03;;;;;;;-144.31;100.00;58022.63;5030252;28;20435;-57
2023/01/10 03:05:44;;;;;;;4.82;2.67;;;;;;;-144.31;100.00;58022.63;5054903;28;20800;-57
2023/01/10 03:08:18;;;;;;;3.97;2.70;;;;;;;-144.31;100.00;58022.63;5055636;28;20485;-55
2023/01/10 03:10:52;;;;;;;8.20;3.00;;;;;;;-144.31;100.00;58022.63;5051650;28;20485;-54
2023/01/10 03:13:25;;;;;;;5.93;3.30;;;;;;;-144.31;100.00;58022.63;5054675;28;20130;-54
2023/01/10 03:15:55;;;;;;;4.15;2.80;;;;;;;-144.31;100.00;58022.63;5053786;28;20630;-57
2023/01/10 03:18:33;;;;;;;4.35;3.10;;;;;;;-144.31;100.00;58022.63;5049568;28;20626;-54
2023/01/10 03:21:01;;;;;;;4.30;2.88;;;;;;;-144.31;100.00;58022.63;5055486;28;20412;-56
2023/01/10 03:23:27;;;;;;;5.18;3.33;;;;;;;-144.31;100.00;58022.63;5034549;28;20055;-55
2023/01/10 03:25:55;;;;;;;7.15;3.20;;;;;;;-144.31;100.00;58022.63;5051638;28;20045;-56
2023/01/10 03:28:27;;;;;;;6.00;3.40;;;;;;;-144.31;100.00;58022.63;5052855;28;20040;-55
2023/01/10 03:31:01;;;;;;;4.30;3.08;;;;;;;-144.31;100.00;58022.63;5054396;28;20101;-55
2023/01/10 03:33:29;;;;;;;8.02;3.50;;;;;;;-144.31;100.00;58022.63;5056384;28;20040;-57
2023/01/10 03:36:15;;;;;;;5.90;3.22;;;;;;;-144.31;100.00;58022.63;5058078;28;20040;-55
2023/01/10 03:38:43;;;;;;;5.57;3.25;;;;;;;-144.31;100.00;58022.63;5050980;28;20087;-55
2023/01/10 03:41:23;;;;;;;11.75;4.00;;;;;;;-144.31;100.00;58022.63;5054668;28;20048;-54
2023/01/10 03:44:48;;;;;;;4.50;2.90;;;;;;;-144.31;100.00;58022.63;5063723;28;20041;-58
2023/01/10 03:47:39;;;;;;;7.85;3.40;;;;;;;-144.31;100.00;58022.63;5052874;28;20071;-55
2023/01/10 03:50:12;;;;;;;6.32;3.45;;;;;;;-144.31;100.00;58022.63;5060067;28;20458;-52
2023/01/10 03:52:40;;;;;;;5.38;3.10;;;;;;;-144.31;100.00;58022.63;5051868;28;20040;-55
2023/01/10 03:55:10;;;;;;;4.93;3.38;;;;;;;-144.31;100.00;58022.63;5053822;28;20808;-55
2023/01/10 03:57:35;;;;;;;6.90;3.50;;;;;;;-144.31;100.00;58022.63;5061461;28;20048;-53
2023/01/10 04:00:01;;;;;;;4.47;3.17;;;;;;;-144.31;100.00;58022.63;5056013;28;20191;-55
2023/01/10 04:02:29;;;;;;;5.78;2.58;;;;;;;-144.31;100.00;58022.63;5053879;28;20036;-58
2023/01/10 04:04:56;;;;;;;5.88;3.20;;;;;;;-144.31;100.00;58022.63;5053502;28;20040;-56
2023/01/10 04:07:22;;;;;;;6.10;2.95;;;;;;;-144.31;100.00;58022.63;5052461;28;20044;-54
2023/01/10 04:09:47;;;;;;;7.05;3.15;;;;;;;-144.31;100.00;58022.63;5053787;28;20540;-55
2023/01/10 04:12:14;;;;;;;5.55;2.80;;;;;;;-144.31;100.00;58022.63;5056637;28;20052;-57
2023/01/10 04:14:40;;;;;;;8.73;3.10;;;;;;;-144.31;100.00;58022.63;5062745;28;20033;-55
2023/01/10 04:17:06;;;;;;;7.47;2.70;;;;;;;-144.31;100.00;58022.63;5055017;28;20327;-55
2023/01/10 04:19:31;;;;;;;6.97;3.05;;;;;;;-144.31;100.00;58022.63;5061103;28;20417;-57
2023/01/10 04:21:56;;;;;;;11.15;3.03;;;;;;;-144.31;100.00;58022.63;5056319;28;20387;-58
2023/01/10 04:24:22;;;;;;;6.50;2.80;;;;;;;-144.31;100.00;58022.63;5052078;28;20087;-55
2023/01/10 04:26:48;;;;;;;9.55;3.08;;;;;;;-144.31;100.00;58022.63;5049733;28;20037;-56
2023/01/10 04:29:13;;;;;;;7.03;3.00;;;;;;;-144.31;100.00;58022.63;5050341;28;20433;-57
2023/01/10 04:31:39;;;;;;;13.15;3.13;;;;;;;-144.31;100.00;58022.63;5054070;28;20593;-58
2023/01/10 04:34:08;;;;;;;6.75;3.05;;;;;;;-144.31;100.00;58022.63;5054581;28;20044;-56
2023/01/10 04:36:35;;;;;;;6.72;3.17;;;;;;;-144.31;100.00;58022.63;5056294;28;20417;-56
2023/01/10 04:39:01;;;;;;;9.63;3.50;;;;;;;-144.31;100.00;58022.63;5053332;28;20094;-58
2023/01/10 04:41:27;;;;;;;6.80;3.10;;;;;;;-144.31;100.00;58022.63;5054594;28;20051;-56
2023/01/10 04:43:52;;;;;;;6.20;2.88;;;;;;;-144.31;100.00;58022.63;5059292;28;20036;-55
2023/01/10 04:46:17;;;;;;;7.53;3.38;;;;;;;-144.31;100.00;58022.63;5086110;28;20481;-58
2023/01/10 04:48:43;;;;;;;8.27;3.10;;;;;;;-144.31;100.00;58022.63;5058851;28;20071;-58
2023/01/10 04:51:08;;;;;;;6.78;3.58;;;;;;;-144.31;100.00;58022.63;5052540;28;20045;-58
2023/01/10 04:53:34;;;;;;;6.82;3.63;;;;;;;-144.31;100.00;58022.63;5051649;28;20105;-57
2023/01/10 04:56:04;;;;;;;9.68;3.72;;;;;;;-144.31;100.00;58022.63;5049369;28;20119;-57
2023/01/10 04:58:34;;;;;;;8.10;3.97;;;;;;;-144.31;100.00;58022.63;5061487;28;20103;-58
2023/01/10 05:01:10;;;;;;;7.07;4.07;;;;;;;-144.31;100.00;58022.63;5053272;28;20053;-56
2023/01/10 05:03:36;;;;;;;9.65;4.00;;;;;;;-144.31;100.00;58022.63;5056176;28;20064;-57
2023/01/10 05:06:01;;;;;;;10.43;3.78;;;;;;;-144.31;100.00;58022.63;5056453;28;20091;-56
2023/01/10 05:08:27;;;;;;;6.43;3.55;;;;;;;-144.31;100.00;58022.63;5054986;28;20043;-58
2023/01/10 05:10:52;;;;;;;6.82;3.80;;;;;;;-144.31;100.00;58022.63;5051624;28;20559;-57
2023/01/10 05:13:18;;;;;;;10.20;4.18;;;;;;;-144.31;100.00;58022.63;5057881;28;20469;-57
2023/01/10 05:15:43;;;;;;;10.57;4.53;;;;;;;-144.31;100.00;58022.63;5058563;28;20043;-51
2023/01/10 05:18:09;;;;;;;7.47;3.80;;;;;;;-144.31;100.00;58022.63;5063392;28;20515;-58
2023/01/10 05:20:34;;;;;;;9.27;3.70;;;;;;;-144.31;100.00;58022.63;5054447;28;20040;-58
2023/01/10 05:22:59;;;;;;;8.15;3.92;;;;;;;-144.31;100.00;58022.63;5053528;28;20032;-58
2023/01/10 05:25:25;;;;;;;9.88;4.38;;;;;;;-144.31;100.00;58022.63;5051787;28;20052;-58
2023/01/10 05:27:50;;;;;;;9.90;4.95;;;;;;;-144.31;100.00;58022.63;5052960;28;20052;-58
2023/01/10 05:30:16;;;;;;;12.88;5.10;;;;;;;-144.31;100.00;58022.63;5061532;28;20059;-58
2023/01/10 05:32:41;;;;;;;8.30;4.57;;;;;;;-144.31;100.00;58022.63;5057933;28;20045;-58
2023/01/10 05:35:07;;;;;;;9.63;4.03;;;;;;;-144.31;100.00;58022.63;5049651;28;20537;-57
2023/01/10 05:37:33;;;;;;;7.40;3.60;;;;;;;-144.31;100.00;58022.63;5055310;28;20048;-58
2023/01/10 05:39:58;;;;;;;9.63;4.78;;;;;;;-144.31;100.00;58022.63;5049477;28;20045;-58
2023/01/10 05:42:24;;;;;;;8.98;3.92;;;;;;;-144.31;100.00;58022.63;5058455;28;20119;-56
2023/01/10 05:44:49;;;;;;;14.63;4.15;;;;;;;-144.31;100.00;58022.63;5051009;28;20091;-59
2023/01/10 05:47:14;;;;;;;12.32;3.95;;;;;;;-144.31;100.00;58022.63;5051075;28;20033;-58
2023/01/10 05:49:40;;;;;;;13.43;3.78;;;;;;;-144.31;100.00;58022.63;5052047;28;20398;-59
2023/01/10 05:52:05;;;;;;;12.45;4.63;;;;;;;-144.31;100.00;58022.63;5050022;28;20481;-58
2023/01/10 05:54:31;;;;;;;12.18;3.85;;;;;;;-144.31;100.00;58022.63;5053677;28;20055;-59
2023/01/10 05:56:56;;;;;;;10.55;3.97;;;;;;;-144.31;100.00;58022.63;5053227;28;20041;-57
2023/01/10 05:59:22;;;;;;;7.75;3.58;;;;;;;-144.31;100.00;58022.63;5055816;28;20098;-59
2023/01/10 06:01:48;;;;;;;11.32;3.92;;;;;;;-144.31;100.00;58022.63;5054984;28;20116;-57
2023/01/10 06:04:13;;;;;;;12.50;4.18;;;;;;;-144.31;100.00;58022.63;5053536;28;20501;-57
2023/01/10 06:06:39;;;;;;;14.32;4.53;;;;;;;-144.31;100.00;58022.63;5049622;28;20064;-57
2023/01/10 06:09:04;;;;;;;27.08;5.05;;;;;;;-144.31;100.00;58022.63;5056971;28;20036;-57
2023/01/10 06:11:29;;;;;;;12.82;5.07;;;;;;;-144.31;100.00;58022.63;5059805;28;20032;-58
2023/01/10 06:13:56;;;;;;;26.73;6.80;;;;;;;-144.31;100.00;58022.63;5064692;28;20872;-57
2023/01/10 06:16:22;;;;;;;12.20;4.00;;;;;;;-144.31;100.00;58022.63;5058012;28;20037;-58
2023/01/10 06:18:48;;;;;;;16.30;3.88;;;;;;;-144.31;100.00;58022.63;5055751;28;20033;-58
2023/01/10 06:21:13;;;;;;;12.13;3.53;;;;;;;-144.31;100.00;58022.63;5049050;28;20037;-58
2023/01/10 06:23:39;;;;;;;13.45;3.70;;;;;;;-144.31;100.00;58022.63;5058145;28;20044;-58
2023/01/10 06:26:04;;;;;;;13.98;3.50;;;;;;;-144.31;100.00;58022.63;5055664;28;20123;-57
2023/01/10 06:28:30;;;;;;;15.32;4.13;;;;;;;-144.31;100.00;58022.63;5054576;28;20131;-58
2023/01/10 06:30:55;;;;;;;15.85;3.80;;;;;;;-144.31;100.00;58022.63;5055932;28;20105;-57
2023/01/10 06:33:21;;;;;;;14.13;3.97;;;;;;;-144.31;100.00;58022.63;5055799;28;20072;-57
2023/01/10 06:35:47;;;;;;;16.90;3.78;;;;;;;-144.31;100.00;58022.63;5053617;28;20036;-58
2023/01/10 06:38:13;;;;;;;17.85;3.65;;;;;;;-144.31;100.00;58022.63;5053369;28;20032;-59
2023/01/10 06:40:39;;;;;;;16.83;4.20;;;;;;;-144.31;100.00;58022.63;5050282;28;20142;-58
2023/01/10 06:43:07;;;;;;;19.52;4.95;;;;;;;-144.31;100.00;58022.63;5037043;28;20028;-59
2023/01/10 06:45:32;;;;;;;13.90;4.03;;;;;;;-144.31;100.00;58022.63;5052497;28;20045;-58
2023/01/10 06:47:58;;;;;;;13.45;3.75;;;;;;;-144.31;100.00;58022.63;5052566;28;20068;-59
2023/01/10 06:50:23;;;;;;;15.23;4.07;;;;;;;-144.31;100.00;58022.63;5053852;28;20121;-59
2023/01/10 06:53:00;;;;;;;16.67;4.22;;;;;;;-144.31;100.00;58022.63;5051303;28;20060;-58
2023/01/10 06:55:26;;;;;;;11.85;3.80;;;;;;;-144.31;100.00;58022.63;5050936;28;20082;-58
2023/01/10 06:58:00;;;;;;;15.63;3.63;;;;;;;-144.31;100.00;58022.63;5060664;28;20045;-56
2023/01/10 07:00:27;;;;;;;16.95;4.07;;;;;;;-144.31;100.00;58022.63;5055660;28;20282;-58
2023/01/10 07:02:56;;;;;;;17.85;3.17;;;;;;;-144.31;100.00;58022.63;5055200;28;20052;-58
2023/01/10 07:05:22;;;;;;;18.23;3.67;;;;;;;-144.31;100.00;58022.63;5051273;28;20055;-58
2023/01/10 07:07:47;;;;;;;14.63;3.78;;;;;;;-144.31;100.00;58022.63;5050171;28;20036;-58
2023/01/10 07:10:13;;;;;;;16.25;3.50;;;;;;;-144.31;100.00;58022.63;5052786;28;20028;-58
2023/01/10 07:12:38;;;;;;;14.07;3.75;;;;;;;-144.31;100.00;58022.63;5054435;28;20111;-58
2023/01/10 07:15:04;;;;;;;19.60;3.75;;;;;;;-144.31;100.00;58022.63;5056193;28;20024;-57
2023/01/10 07:17:30;;;;;;;18.42;4.00;;;;;;;-144.31;100.00;58022.63;5054896;28;20115;-58
2023/01/10 07:19:55;;;;;;;12.95;3.10;;;;;;;-144.31;100.00;58022.63;5052148;28;20045;-58
2023/01/10 07:22:21;;;;;;;20.05;3.78;;;;;;;-144.31;100.00;58022.63;5056315;28;20418;-58
2023/01/10 07:24:46;;;;;;;17.08;3.47;;;;;;;-144.31;100.00;58022.63;5056269;28;20128;-58
2023/01/10 07:27:11;;;;;;;21.95;3.47;;;;;;;-144.31;100.00;58022.63;5060275;28;20037;-58
2023/01/10 07:29:37;;;;;;;18.70;3.40;;;;;;;-144.31;100.00;58022.63;5056746;28;20541;-58
2023/01/10 07:32:03;;;;;;;18.25;3.60;;;;;;;-144.31;100.00;58022.63;5059514;28;20064;-57
2023/01/10 07:34:28;;;;;;;13.18;2.72;;;;;;;-144.31;100.00;58022.63;5057108;28;20462;-58
2023/01/10 07:36:53;;;;;;;18.85;3.30;;;;;;;-144.31;100.00;58022.63;5056604;28;20036;-58
2023/01/10 07:39:19;;;;;;;19.83;3.97;;;;;;;-144.31;100.00;58022.63;5056905;28;20041;-58
2023/01/10 07:41:49;;;;;;;16.58;3.65;;;;;;;-144.31;100.00;58022.63;5055764;28;20435;-58
2023/01/10 07:44:15;;;;;;;14.38;3.75;;;;;;;-144.31;100.00;58022.63;5056738;28;20048;-59
2023/01/10 07:46:40;;;;;;;17.35;3.60;;;;;;;-144.31;100.00;58022.63;5053528;28;20045;-58
2023/01/10 07:49:05;;;;;;;11.23;3.28;;;;;;;-144.31;100.00;58022.63;5054433;28;20144;-58
2023/01/10 07:51:31;;;;;;;12.27;3.42;;;;;;;-144.31;100.00;58022.63;5053258;28;20048;-58
2023/01/10 07:53:56;;;;;;;13.60;3.25;;;;;;;-144.31;100.00;58022.63;5052155;28;20096;-58
2023/01/10 07:56:22;;;;;;;15.25;3.10;;;;;;;-144.31;100.00;58022.63;5053372;28;20047;-59
2023/01/10 07:58:47;;;;;;;12.70;2.70;;;;;;;-144.31;100.00;58022.63;5056397;28;20283;-59
2023/01/10 08:01:13;;;;;;;13.80;3.33;;;;;;;-144.31;100.00;58022.63;5052783;28;20044;-57
2023/01/10 08:03:38;;;;;;;16.33;3.47;;;;;;;-144.31;100.00;58022.63;5054793;28;20078;-57
2023/01/10 08:06:06;;;;;;;14.85;3.30;;;;;;;-144.31;100.00;58022.63;5052370;28;20048;-57
2023/01/10 08:08:33;;;;;;;16.08;3.65;;;;;;;-144.31;100.00;58022.63;5084643;27;20063;-58
2023/01/10 08:11:01;;;;;;;10.73;3.10;;;;;;;-144.31;100.00;58022.63;5052976;28;20042;-59
2023/01/10 08:13:27;;;;;;;14.65;3.20;;;;;;;-144.31;100.00;58022.63;5052013;28;20048;-58
2023/01/10 08:15:52;;;;;;;14.50;3.67;;;;;;;-144.31;100.00;58022.63;5053011;28;20041;-59
2023/01/10 08:18:19;;;;;;;18.50;3.42;;;;;;;-144.31;100.00;58022.63;5052725;28;20566;-59
2023/01/10 08:20:46;;;;;;;;;;;;;;;-144.31;100.00;58022.63;5054999;28;20041;-58
2023/01/10 08:23:12;;;;;;;12.23;3.17;;;;;;;-144.31;100.00;58022.63;5052219;28;19927;-59
2023/01/10 08:25:38;;;;;;;14.38;3.47;;;;;;;-144.31;100.00;58022.63;5052550;28;20045;-59
2023/01/10 08:28:03;;;;;;;10.68;3.30;;;;;;;-144.31;100.00;58022.63;5055305;28;20073;-59
2023/01/10 08:30:28;;;;;;;12.80;3.00;;;;;;;-144.31;100.00;58022.63;5053066;28;20086;-60
2023/01/10 08:32:54;;;;;;;19.10;3.75;;;;;;;-144.31;100.00;58022.63;5052580;28;20107;-59
2023/01/10 08:35:19;;;;;;;15.55;3.72;;;;;;;-144.31;100.00;58022.63;5053024;28;20138;-59
2023/01/10 08:37:45;;;;;;;15.98;3.92;;;;;;;-144.31;100.00;58022.63;5050372;28;20048;-60
2023/01/10 08:40:11;;;;;;;13.75;3.85;;;;;;;-144.31;100.00;58022.63;5051441;28;20505;-59
2023/01/10 08:42:36;;;;;;;18.20;3.40;;;;;;;-144.31;100.00;58022.63;5052610;28;20032;-59
2023/01/10 08:45:02;;;;;;;23.73;4.15;;;;;;;-144.31;100.00;58022.63;5052553;28;20048;-60
2023/01/10 08:47:27;;;;;;;15.95;4.80;;;;;;;-144.31;100.00;58022.63;5053681;28;20479;-59
2023/01/10 08:49:53;;;;;;;15.05;3.55;;;;;;;-144.31;100.00;58022.63;5053261;28;20647;-59
2023/01/10 08:52:18;;;;;;;15.77;3.60;;;;;;;-144.31;100.00;58022.63;5051109;28;20079;-58
2023/01/10 08:54:44;;;;;;;19.77;4.32;;;;;;;-144.31;100.00;58022.63;5051440;28;20135;-58
2023/01/10 08:57:09;;;;;;;13.68;3.53;;;;;;;-144.31;100.00;58022.63;5050796;28;20106;-59
2023/01/10 08:59:35;;;;;;;20.70;3.60;;;;;;;-144.31;100.00;58022.63;5053317;28;20478;-58
2023/01/10 09:02:00;;;;;;;18.10;10.57;;;;;;;-144.31;100.00;58022.63;5049969;28;20044;-59
2023/01/10 09:04:27;;;;;;;19.08;3.50;;;;;;;-144.31;100.00;58022.63;5059471;28;20037;-59
2023/01/10 09:06:53;;;;;;;16.35;3.80;;;;;;;-144.31;100.00;58022.63;5049951;28;20045;-59
2023/01/10 09:09:19;;;;;;;17.60;3.80;;;;;;;-144.31;100.00;58022.63;5049466;28;20056;-59
2023/01/10 09:11:45;;;;;;;18.45;3.65;;;;;;;-144.31;100.00;58022.63;5051364;28;20044;-59
2023/01/10 09:14:10;;;;;;;15.57;3.58;;;;;;;-144.31;100.00;58022.63;5051618;28;20032;-58
2023/01/10 09:16:36;;;;;;;17.92;3.85;;;;;;;-144.31;100.00;58022.63;5052117;28;20040;-59
2023/01/10 09:19:01;;;;;;;13.00;3.42;;;;;;;-144.31;100.00;58022.63;5050202;28;20040;-58
2023/01/10 09:21:27;;;;;;;17.73;3.50;;;;;;;-144.31;100.00;58022.63;5052867;28;20043;-59
2023/01/10 09:23:53;;;;;;;18.65;3.90;;;;;;;-144.31;100.00;58022.63;5054066;28;20090;-59
2023/01/10 09:26:18;;;;;;;16.00;3.63;;;;;;;-144.31;100.00;58022.63;5052774;28;20052;-58
2023/01/10 09:28:44;;;;;;;13.45;3.60;;;;;;;-144.31;100.00;58022.63;5051048;28;20086;-59
2023/01/10 09:31:10;;;;;;;14.55;4.15;;;;;;;-144.31;100.00;58022.63;5052749;28;20048;-59
2023/01/10 09:33:36;;;;;;;14.47;3.70;;;;;;;-144.31;100.00;58022.63;5051542;28;20051;-58
2023/01/10 09:36:02;;;;;;;22.63;4.10;;;;;;;-144.31;100.00;58022.63;5050291;28;20040;-59
2023/01/10 09:38:27;;;;;;;10.10;2.85;;;;;;;-144.31;100.00;58022.63;5052806;28;20614;-59
2023/01/10 09:41:11;;;;;;;13.45;3.80;;;;;;;-144.31;100.00;58022.63;5050780;28;20645;-58
2023/01/10 09:43:42;;;;;;;12.85;3.65;;;;;;;-144.31;100.00;58022.63;5053045;28;20033;-58
2023/01/10 09:46:15;;;;;;;17.00;4.20;;;;;;;-144.31;100.00;58022.63;5051969;28;20062;-59
2023/01/10 09:48:53;;;;;;;13.13;4.30;;;;;;;-144.31;100.00;58022.63;5058223;28;20095;-58
2023/01/10 09:51:42;;;;;;;17.35;3.75;;;;;;;-144.31;100.00;58022.63;5049778;28;20107;-58
2023/01/10 09:54:24;;;;;;;19.92;4.68;;;;;;;-144.31;100.00;58022.63;5050683;28;20052;-59
2023/01/10 09:56:51;;;;;;;16.30;4.13;;;;;;;-144.31;100.00;58022.63;5050441;28;20560;-59
2023/01/10 09:59:19;;;;;;;;;;;;;;;-144.31;100.00;58022.63;5050610;28;20055;-58
2023/01/10 10:01:47;;;;;;;16.90;3.53;;;;;;;-144.31;100.00;58022.63;5053419;28;20058;-59
2023/01/10 10:04:30;;;;;;;18.60;3.72;;;;;;;-144.31;100.00;58022.63;5047761;28;20045;-59
2023/01/10 10:06:55;;;;;;;16.65;3.40;;;;;;;-144.31;100.00;58022.63;5049721;28;20052;-59
2023/01/10 10:09:27;;;;;;;15.15;4.50;;;;;;;-144.31;100.00;58022.63;5051775;28;20040;-59
2023/01/10 10:12:18;;;;;;;11.70;3.83;;;;;;;-144.31;100.00;58022.63;5046942;28;20048;-58
2023/01/10 10:14:56;;;;;;;19.70;4.40;;;;;;;-144.31;100.00;58022.63;5049995;28;20043;-58
2023/01/10 10:17:35;;;;;;;16.77;3.60;;;;;;;-144.31;100.00;58022.63;5047971;28;20788;-58
2023/01/10 10:20:19;;;;;;;15.82;4.13;;;;;;;-144.31;100.00;58022.63;5050636;28;20064;-57
2023/01/10 10:23:13;;;;;;;17.40;3.95;;;;;;;-144.31;100.00;58022.63;5048210;28;20116;-58
2023/01/10 10:25:54;;;;;;;9.20;3.47;;;;;;;-144.31;100.00;58022.63;5048298;28;20045;-59
2023/01/10 10:28:43;;;;;;;12.07;3.97;;;;;;;-144.31;100.00;58022.63;5048386;28;20077;-59
2023/01/10 10:31:20;;;;;;;16.45;5.35;;;;;;;-144.31;100.00;58022.63;5048893;28;20049;-58
2023/01/10 10:34:04;;;;;;;18.40;3.90;;;;;;;-144.31;100.00;58022.63;5058408;28;20131;-59
2023/01/10 10:36:44;;;;;;;12.18;3.72;;;;;;;-144.31;100.00;58022.63;5050691;28;20033;-59
2023/01/10 10:39:16;;;;;;;12.32;3.58;;;;;;;-144.31;100.00;58022.63;5048314;28;20059;-59
2023/01/10 10:41:45;;;;;;;19.83;3.83;;;;;;;-144.31;100.00;58022.63;5055094;28;20037;-58
2023/01/10 10:44:32;;;;;;;13.98;3.78;;;;;;;-144.31;100.00;58022.63;5056954;28;20036;-58
2023/01/10 10:46:59;;;;;;;13.52;3.78;;;;;;;-144.31;100.00;58022.63;5053184;28;20047;-59
2023/01/10 10:49:40;;;;;;;16.35;4.35;;;;;;;-144.31;100.00;58022.63;5054475;28;20036;-59
2023/01/10 10:52:24;;;;;;;11.63;3.47;;;;;;;-144.31;100.00;58022.63;5054141;28;20091;-58
2023/01/10 10:54:51;;;;;;;12.45;2.70;;;;;;;-144.31;100.00;58022.63;5054282;28;20037;-58
2023/01/10 10:57:17;;;;;;;8.55;3.08;;;;;;;-144.31;100.00;58022.63;5055408;28;20032;-56
2023/01/10 10:59:45;;;;;;;14.57;3.30;;;;;;;-144.31;100.00;58022.63;5054438;28;20047;-58
2023/01/10 11:02:21;;;;;;;9.23;3.78;;;;;;;-144.31;100.00;58022.63;5051195;28;20037;-58
2023/01/10 11:04:49;;;;;;;14.95;4.50;;;;;;;-144.31;100.00;58022.63;5056689;28;20085;-58
2023/01/10 11:07:17;;;;;;;11.32;5.60;;;;;;;-144.31;100.00;58022.63;5053262;28;20105;-59
2023/01/10 11:09:47;;;;;;;;;;;;;;;-144.31;100.00;58022.63;5052297;28;20049;-59
2023/01/10 11:12:16;;;;;;;14.10;3.17;;;;;;;-144.31;100.00;58022.63;5051054;28;19920;-59
2023/01/10 11:14:47;;;;;;;11.07;2.88;;;;;;;-144.31;100.00;58022.63;5052623;28;20037;-59
2023/01/10 11:17:33;;;;;;;13.57;3.22;;;;;;;-144.31;100.00;58022.63;5052645;28;20076;-59
2023/01/10 11:20:05;;;;;;;15.07;4.95;;;;;;;-144.31;100.00;58022.63;5052928;28;20486;-59
2023/01/10 11:22:43;;;;;;;13.52;3.15;;;;;;;-144.31;100.00;58022.63;5051723;28;20082;-58